createdAt,value
2016-04-07T00:00:05.854Z,0
2016-04-07T00:01:05.871Z,0
2016-04-07T00:02:05.874Z,0
2016-04-07T00:03:05.877Z,0
2016-04-07T00:04:05.848Z,0
2016-04-07T00:05:05.850Z,0
2016-04-07T00:06:05.853Z,0
2016-04-07T00:07:05.872Z,0
2016-04-07T00:08:05.859Z,0
2016-04-07T00:09:05.877Z,0
2016-04-07T00:10:05.864Z,0
2016-04-07T00:11:05.867Z,0
2016-04-07T00:12:05.886Z,0
2016-04-07T00:13:05.841Z,0
2016-04-07T00:14:05.844Z,0
2016-04-07T00:15:05.909Z,0
2016-04-07T00:16:05.904Z,0
2016-04-07T00:17:05.951Z,0
2016-04-07T00:18:05.967Z,0
2016-04-07T00:19:06.045Z,0
2016-04-07T00:20:05.827Z,0
2016-04-07T00:21:05.951Z,0
2016-04-07T00:22:06.111Z,0
2016-04-07T00:23:06.145Z,0
2016-04-07T00:24:06.131Z,0
2016-04-07T00:25:06.354Z,0
2016-04-07T00:26:06.179Z,0
2016-04-07T00:27:06.171Z,0
2016-04-07T00:28:06.164Z,0
2016-04-07T00:29:06.189Z,0
2016-04-07T00:30:06.181Z,0
2016-04-07T00:31:06.203Z,0
2016-04-07T00:32:06.193Z,0
2016-04-07T00:33:06.197Z,0
2016-04-07T00:34:06.216Z,0
2016-04-07T00:35:06.190Z,0
2016-04-07T00:36:06.194Z,0
2016-04-07T00:37:06.214Z,0
2016-04-07T00:38:06.186Z,0
2016-04-07T00:39:06.236Z,0
2016-04-07T00:40:06.208Z,0
2016-04-07T00:41:06.197Z,0
2016-04-07T00:42:06.214Z,0
2016-04-07T00:43:06.218Z,0
2016-04-07T00:44:06.206Z,0
2016-04-07T00:45:06.208Z,0
2016-04-07T00:46:06.212Z,0
2016-04-07T00:47:06.214Z,0
2016-04-07T00:48:06.200Z,0
2016-04-07T00:49:06.203Z,0
2016-04-07T00:50:06.222Z,0
2016-04-07T00:51:06.225Z,0
2016-04-07T00:52:06.211Z,0
2016-04-07T00:53:06.230Z,0
2016-04-07T00:54:06.217Z,0
2016-04-07T00:55:06.236Z,0
2016-04-07T00:56:06.191Z,0
2016-04-07T00:57:06.225Z,0
2016-04-07T00:58:06.197Z,0
2016-04-07T00:59:06.199Z,0
2016-04-07T01:00:06.217Z,0
2016-04-07T01:01:06.205Z,0
2016-04-07T01:02:06.223Z,0
2016-04-07T01:03:06.210Z,0
2016-04-07T01:04:06.197Z,0
2016-04-07T01:05:06.200Z,0
2016-04-07T01:06:06.234Z,0
2016-04-07T01:07:06.205Z,0
2016-04-07T01:08:06.239Z,0
2016-04-07T01:09:06.195Z,0
2016-04-07T01:10:06.197Z,0
2016-04-07T01:11:06.232Z,0
2016-04-07T01:12:06.219Z,0
2016-04-07T01:13:06.190Z,0
2016-04-07T01:14:06.255Z,0
2016-04-07T01:15:06.211Z,0
2016-04-07T01:16:06.213Z,0
2016-04-07T01:17:06.184Z,0
2016-04-07T01:18:06.218Z,0
2016-04-07T01:19:06.206Z,0
2016-04-07T01:20:06.193Z,0
2016-04-07T01:21:06.196Z,0
2016-04-07T01:22:06.214Z,0
2016-04-07T01:23:06.232Z,0
2016-04-07T01:24:06.188Z,0
2016-04-07T01:25:06.206Z,0
2016-04-07T01:26:06.209Z,0
2016-04-07T01:27:06.243Z,0
2016-04-07T01:28:06.214Z,0
2016-04-07T01:29:06.186Z,0
2016-04-07T01:30:06.220Z,0
2016-04-07T01:31:06.207Z,0
2016-04-07T01:32:06.225Z,0
2016-04-07T01:33:06.213Z,0
2016-04-07T01:34:06.199Z,0
2016-04-07T01:35:06.249Z,0
2016-04-07T01:36:06.236Z,0
2016-04-07T01:37:06.224Z,0
2016-04-07T01:38:06.211Z,0
2016-04-07T01:39:06.197Z,0
2016-04-07T01:40:06.216Z,0
2016-04-07T01:41:06.202Z,0
2016-04-07T01:42:06.221Z,0
2016-04-07T01:43:06.208Z,0
2016-04-07T01:44:06.211Z,0
2016-04-07T01:45:06.213Z,0
2016-04-07T01:46:06.216Z,0
2016-04-07T01:47:06.203Z,0
2016-04-07T01:48:06.190Z,0
2016-04-07T01:49:06.209Z,0
2016-04-07T01:50:06.196Z,0
2016-04-07T01:51:06.198Z,0
2016-04-07T01:52:06.201Z,0
2016-04-07T01:53:06.204Z,0
2016-04-07T01:54:06.222Z,0
2016-04-07T01:55:06.209Z,0
2016-04-07T01:56:06.212Z,0
2016-04-07T01:57:06.214Z,0
2016-04-07T01:58:06.201Z,0
2016-04-07T01:59:06.219Z,0
2016-04-07T02:00:06.050Z,0
2016-04-07T02:01:05.444Z,0
2016-04-07T02:02:06.197Z,0
2016-04-07T02:03:06.183Z,0
2016-04-07T02:04:06.202Z,0
2016-04-07T02:05:06.205Z,0
2016-04-07T02:06:06.222Z,0
2016-04-07T02:07:06.194Z,0
2016-04-07T02:08:06.197Z,0
2016-04-07T02:09:06.200Z,0
2016-04-07T02:10:06.188Z,0
2016-04-07T02:11:06.205Z,0
2016-04-07T02:12:06.192Z,0
2016-04-07T02:13:06.196Z,0
2016-04-07T02:14:06.182Z,0
2016-04-07T02:15:06.169Z,0
2016-04-07T02:16:06.188Z,0
2016-04-07T02:17:06.190Z,0
2016-04-07T02:18:06.193Z,0
2016-04-07T02:19:06.196Z,0
2016-04-07T02:20:06.182Z,0
2016-04-07T02:21:06.232Z,0
2016-04-07T02:22:06.204Z,0
2016-04-07T02:23:06.190Z,0
2016-04-07T02:24:06.193Z,0
2016-04-07T02:25:06.212Z,0
2016-04-07T02:26:06.215Z,0
2016-04-07T02:27:06.186Z,0
2016-04-07T02:28:06.173Z,0
2016-04-07T02:29:06.192Z,0
2016-04-07T02:30:06.195Z,0
2016-04-07T02:31:06.197Z,0
2016-04-07T02:32:06.214Z,0
2016-04-07T02:33:06.202Z,0
2016-04-07T02:34:06.189Z,0
2016-04-07T02:35:06.176Z,0
2016-04-07T02:36:06.195Z,0
2016-04-07T02:37:06.181Z,0
2016-04-07T02:38:06.183Z,0
2016-04-07T02:39:06.233Z,0
2016-04-07T02:40:06.174Z,0
2016-04-07T02:41:06.191Z,0
2016-04-07T02:42:06.179Z,0
2016-04-07T02:43:06.197Z,0
2016-04-07T02:44:06.216Z,0
2016-04-07T02:45:06.202Z,0
2016-04-07T02:46:06.174Z,0
2016-04-07T02:47:06.162Z,0
2016-04-07T02:48:06.180Z,0
2016-04-07T02:49:06.182Z,0
2016-04-07T02:50:06.185Z,0
2016-04-07T02:51:06.173Z,0
2016-04-07T02:52:06.190Z,0
2016-04-07T02:53:06.193Z,0
2016-04-07T02:54:06.306Z,0
2016-04-07T02:55:06.184Z,0
2016-04-07T02:56:06.170Z,0
2016-04-07T02:57:06.173Z,0
2016-04-07T02:58:06.191Z,0
2016-04-07T02:59:06.178Z,0
2016-04-07T03:00:06.181Z,0
2016-04-07T03:01:06.184Z,0
2016-04-07T03:02:06.155Z,0
2016-04-07T03:03:06.173Z,0
2016-04-07T03:04:06.176Z,0
2016-04-07T03:05:06.164Z,0
2016-04-07T03:06:06.181Z,0
2016-04-07T03:07:06.184Z,0
2016-04-07T03:08:06.172Z,0
2016-04-07T03:09:06.127Z,0
2016-04-07T03:10:06.177Z,0
2016-04-07T03:11:06.180Z,0
2016-04-07T03:12:06.167Z,0
2016-04-07T03:13:06.168Z,0
2016-04-07T03:14:06.155Z,0
2016-04-07T03:15:06.174Z,0
2016-04-07T03:16:06.177Z,0
2016-04-07T03:17:06.195Z,0
2016-04-07T03:18:06.166Z,0
2016-04-07T03:19:06.153Z,0
2016-04-07T03:20:06.172Z,0
2016-04-07T03:21:06.174Z,0
2016-04-07T03:22:06.193Z,0
2016-04-07T03:23:06.148Z,0
2016-04-07T03:24:06.182Z,0
2016-04-07T03:25:06.185Z,0
2016-04-07T03:26:06.188Z,0
2016-04-07T03:27:06.159Z,0
2016-04-07T03:28:06.162Z,0
2016-04-07T03:29:06.165Z,0
2016-04-07T03:30:06.152Z,0
2016-04-07T03:31:06.186Z,0
2016-04-07T03:32:06.204Z,0
2016-04-07T03:33:06.192Z,0
2016-04-07T03:34:06.194Z,0
2016-04-07T03:35:06.212Z,0
2016-04-07T03:36:06.184Z,0
2016-04-07T03:37:06.203Z,0
2016-04-07T03:38:06.142Z,0
2016-04-07T03:39:06.223Z,0
2016-04-07T03:40:06.164Z,0
2016-04-07T03:41:06.135Z,0
2016-04-07T03:42:06.200Z,0
2016-04-07T03:43:06.171Z,0
2016-04-07T03:44:06.159Z,0
2016-04-07T03:45:06.161Z,0
2016-04-07T03:46:06.164Z,0
2016-04-07T03:47:06.167Z,0
2016-04-07T03:48:06.168Z,0
2016-04-07T03:49:06.031Z,0
2016-04-07T03:50:06.159Z,0
2016-04-07T03:51:06.177Z,0
2016-04-07T03:52:06.179Z,0
2016-04-07T03:53:06.168Z,0
2016-04-07T03:54:06.108Z,0
2016-04-07T03:55:06.188Z,0
2016-04-07T03:56:06.159Z,0
2016-04-07T03:57:06.193Z,0
2016-04-07T03:58:06.181Z,0
2016-04-07T03:59:06.151Z,0
2016-04-07T04:00:06.170Z,0
2016-04-07T04:01:06.173Z,0
2016-04-07T04:02:06.175Z,0
2016-04-07T04:03:06.147Z,0
2016-04-07T04:04:06.181Z,0
2016-04-07T04:05:06.184Z,0
2016-04-07T04:06:06.155Z,0
2016-04-07T04:07:06.033Z,0
2016-04-07T04:08:06.176Z,0
2016-04-07T04:09:06.304Z,0
2016-04-07T04:10:06.150Z,0
2016-04-07T04:11:06.153Z,0
2016-04-07T04:12:06.187Z,0
2016-04-07T04:13:06.189Z,0
2016-04-07T04:14:06.192Z,0
2016-04-07T04:15:06.180Z,0
2016-04-07T04:16:06.197Z,0
2016-04-07T04:17:06.169Z,0
2016-04-07T04:18:06.157Z,0
2016-04-07T04:19:06.175Z,4
2016-04-07T04:20:06.177Z,4
2016-04-07T04:21:06.165Z,4
2016-04-07T04:22:06.183Z,0
2016-04-07T04:23:06.170Z,4
2016-04-07T04:24:06.251Z,4
2016-04-07T04:25:06.176Z,4
2016-04-07T04:26:06.178Z,4
2016-04-07T04:27:06.165Z,4
2016-04-07T04:28:06.168Z,4
2016-04-07T04:29:06.155Z,8
2016-04-07T04:30:06.156Z,8
2016-04-07T04:31:06.175Z,8
2016-04-07T04:32:06.147Z,12
2016-04-07T04:33:06.197Z,12
2016-04-07T04:34:06.200Z,16
2016-04-07T04:35:06.233Z,16
2016-04-07T04:36:06.267Z,20
2016-04-07T04:37:06.160Z,28
2016-04-07T04:38:06.178Z,32
2016-04-07T04:39:06.291Z,36
2016-04-07T04:40:06.200Z,40
2016-04-07T04:41:06.172Z,48
2016-04-07T04:42:06.189Z,52
2016-04-07T04:43:06.176Z,56
2016-04-07T04:44:06.179Z,64
2016-04-07T04:45:05.400Z,76
2016-04-07T04:46:06.153Z,84
2016-04-07T04:47:06.187Z,92
2016-04-07T04:48:06.174Z,100
2016-04-07T04:49:06.177Z,104
2016-04-07T04:50:06.180Z,120
2016-04-07T04:51:06.166Z,128
2016-04-07T04:52:06.169Z,132
2016-04-07T04:53:06.172Z,140
2016-04-07T04:54:06.675Z,148
2016-04-07T04:55:06.162Z,152
2016-04-07T04:56:06.180Z,160
2016-04-07T04:57:06.183Z,168
2016-04-07T04:58:06.170Z,180
2016-04-07T04:59:06.173Z,196
2016-04-07T05:00:06.190Z,212
2016-04-07T05:01:06.178Z,224
2016-04-07T05:02:06.165Z,236
2016-04-07T05:03:06.184Z,244
2016-04-07T05:04:06.186Z,244
2016-04-07T05:05:06.189Z,248
2016-04-07T05:06:06.176Z,252
2016-04-07T05:07:06.164Z,268
2016-04-07T05:08:05.400Z,300
2016-04-07T05:09:06.262Z,336
2016-04-07T05:10:06.171Z,364
2016-04-07T05:11:06.189Z,392
2016-04-07T05:12:06.177Z,400
2016-04-07T05:13:06.163Z,440
2016-04-07T05:14:06.183Z,492
2016-04-07T05:15:06.169Z,512
2016-04-07T05:16:06.188Z,516
2016-04-07T05:17:06.158Z,524
2016-04-07T05:18:06.177Z,556
2016-04-07T05:19:06.024Z,576
2016-04-07T05:20:06.229Z,548
2016-04-07T05:21:06.201Z,504
2016-04-07T05:22:06.172Z,472
2016-04-07T05:23:06.018Z,444
2016-04-07T05:24:06.209Z,424
2016-04-07T05:25:06.179Z,400
2016-04-07T05:26:06.182Z,360
2016-04-07T05:27:06.170Z,344
2016-04-07T05:28:06.173Z,332
2016-04-07T05:29:06.191Z,320
2016-04-07T05:30:06.193Z,304
2016-04-07T05:31:06.181Z,288
2016-04-07T05:32:06.183Z,264
2016-04-07T05:33:06.201Z,248
2016-04-07T05:34:06.189Z,244
2016-04-07T05:35:06.160Z,248
2016-04-07T05:36:06.178Z,252
2016-04-07T05:37:06.181Z,256
2016-04-07T05:38:06.153Z,264
2016-04-07T05:39:06.156Z,264
2016-04-07T05:40:06.173Z,268
2016-04-07T05:41:06.192Z,280
2016-04-07T05:42:06.178Z,304
2016-04-07T05:43:06.150Z,352
2016-04-07T05:44:06.184Z,388
2016-04-07T05:45:06.187Z,408
2016-04-07T05:46:06.158Z,420
2016-04-07T05:47:06.177Z,464
2016-04-07T05:48:06.180Z,524
2016-04-07T05:49:06.011Z,648
2016-04-07T05:50:06.169Z,872
2016-04-07T05:51:06.157Z,1124
2016-04-07T05:52:06.144Z,1252
2016-04-07T05:53:06.162Z,1228
2016-04-07T05:54:06.180Z,1064
2016-04-07T05:55:06.152Z,840
2016-04-07T05:56:06.155Z,652
2016-04-07T05:57:06.188Z,584
2016-04-07T05:58:06.159Z,544
2016-04-07T05:59:06.146Z,516
2016-04-07T06:00:06.149Z,504
2016-04-07T06:01:06.167Z,504
2016-04-07T06:02:06.170Z,484
2016-04-07T06:03:06.173Z,472
2016-04-07T06:04:06.207Z,500
2016-04-07T06:05:06.225Z,612
2016-04-07T06:06:06.134Z,760
2016-04-07T06:07:06.167Z,960
2016-04-07T06:08:06.139Z,948
2016-04-07T06:09:06.225Z,724
2016-04-07T06:10:06.181Z,652
2016-04-07T06:11:06.169Z,672
2016-04-07T06:12:06.124Z,688
2016-04-07T06:13:06.142Z,696
2016-04-07T06:14:06.130Z,724
2016-04-07T06:15:06.132Z,716
2016-04-07T06:16:06.150Z,756
2016-04-07T06:17:05.981Z,780
2016-04-07T06:18:06.124Z,812
2016-04-07T06:19:05.971Z,828
2016-04-07T06:20:06.130Z,828
2016-04-07T06:21:06.117Z,872
2016-04-07T06:22:06.135Z,872
2016-04-07T06:23:06.122Z,868
2016-04-07T06:24:06.124Z,948
2016-04-07T06:25:06.174Z,1252
2016-04-07T06:26:06.114Z,1644
2016-04-07T06:27:06.117Z,1564
2016-04-07T06:28:06.120Z,1292
2016-04-07T06:29:06.123Z,1392
2016-04-07T06:30:06.109Z,1724
2016-04-07T06:31:06.128Z,1916
2016-04-07T06:32:06.115Z,1932
2016-04-07T06:33:06.117Z,2172
2016-04-07T06:34:06.120Z,2480
2016-04-07T06:35:06.123Z,2680
2016-04-07T06:36:06.111Z,2944
2016-04-07T06:37:06.113Z,3188
2016-04-07T06:38:06.084Z,3312
2016-04-07T06:39:06.086Z,3388
2016-04-07T06:40:05.852Z,3588
2016-04-07T06:41:06.106Z,3548
2016-04-07T06:42:05.936Z,3312
2016-04-07T06:43:06.111Z,3144
2016-04-07T06:44:06.083Z,3308
2016-04-07T06:45:06.086Z,3692
2016-04-07T06:46:06.072Z,4172
2016-04-07T06:47:06.137Z,4540
2016-04-07T06:48:06.186Z,4616
2016-04-07T06:49:06.080Z,4724
2016-04-07T06:50:06.099Z,4912
2016-04-07T06:51:06.086Z,5280
2016-04-07T06:52:06.088Z,5536
2016-04-07T06:53:06.075Z,5296
2016-04-07T06:54:06.093Z,5180
2016-04-07T06:55:06.096Z,5312
2016-04-07T06:56:06.098Z,5372
2016-04-07T06:57:06.070Z,5400
2016-04-07T06:58:06.104Z,5308
2016-04-07T06:59:06.091Z,5268
2016-04-07T07:00:06.110Z,4924
2016-04-07T07:01:06.096Z,4280
2016-04-07T07:02:06.084Z,3956
2016-04-07T07:03:06.086Z,4124
2016-04-07T07:04:06.073Z,3964
2016-04-07T07:05:06.061Z,3712
2016-04-07T07:06:06.095Z,3968
2016-04-07T07:07:06.082Z,4260
2016-04-07T07:08:06.084Z,4700
2016-04-07T07:09:06.072Z,5392
2016-04-07T07:10:06.059Z,6112
2016-04-07T07:11:06.092Z,6644
2016-04-07T07:12:06.080Z,6880
2016-04-07T07:13:05.925Z,6676
2016-04-07T07:14:06.053Z,6080
2016-04-07T07:15:06.056Z,5404
2016-04-07T07:16:05.778Z,5212
2016-04-07T07:17:06.078Z,4820
2016-04-07T07:18:06.064Z,4112
2016-04-07T07:19:06.083Z,3380
2016-04-07T07:20:06.069Z,2732
2016-04-07T07:21:06.088Z,2436
2016-04-07T07:22:06.060Z,2372
2016-04-07T07:23:06.046Z,2332
2016-04-07T07:24:06.065Z,2276
2016-04-07T07:25:06.067Z,2284
2016-04-07T07:26:06.070Z,1924
2016-04-07T07:27:06.057Z,1560
2016-04-07T07:28:06.044Z,1740
2016-04-07T07:29:06.063Z,2352
2016-04-07T07:30:06.081Z,2848
2016-04-07T07:31:06.084Z,3916
2016-04-07T07:32:05.883Z,4680
2016-04-07T07:33:06.063Z,5124
2016-04-07T07:34:06.051Z,5412
2016-04-07T07:35:06.053Z,5080
2016-04-07T07:36:06.056Z,4752
2016-04-07T07:37:06.059Z,4432
2016-04-07T07:38:06.062Z,4284
2016-04-07T07:39:06.065Z,4780
2016-04-07T07:40:06.072Z,4860
2016-04-07T07:41:06.028Z,4752
2016-04-07T07:42:06.030Z,4352
2016-04-07T07:43:05.955Z,4120
2016-04-07T07:44:06.036Z,3964
2016-04-07T07:45:06.053Z,3984
2016-04-07T07:46:06.056Z,4160
2016-04-07T07:47:06.044Z,4384
2016-04-07T07:48:06.047Z,4396
2016-04-07T07:49:06.050Z,4380
2016-04-07T07:50:06.052Z,4492
2016-04-07T07:51:06.070Z,4520
2016-04-07T07:52:06.057Z,4544
2016-04-07T07:53:06.028Z,4696
2016-04-07T07:54:06.062Z,5004
2016-04-07T07:55:06.033Z,5396
2016-04-07T07:56:06.052Z,5556
2016-04-07T07:57:06.054Z,5440
2016-04-07T07:58:06.041Z,5340
2016-04-07T07:59:06.044Z,5368
2016-04-07T08:00:05.938Z,5424
2016-04-07T08:01:06.082Z,5760
2016-04-07T08:02:06.021Z,5948
2016-04-07T08:03:06.040Z,5832
2016-04-07T08:04:06.043Z,5836
2016-04-07T08:05:06.045Z,5448
2016-04-07T08:06:06.048Z,4944
2016-04-07T08:07:06.019Z,4696
2016-04-07T08:08:06.037Z,4624
2016-04-07T08:09:05.900Z,4644
2016-04-07T08:10:06.059Z,4596
2016-04-07T08:11:06.031Z,4480
2016-04-07T08:12:06.017Z,4332
2016-04-07T08:13:06.020Z,4168
2016-04-07T08:14:05.897Z,3928
2016-04-07T08:15:06.041Z,3644
2016-04-07T08:16:06.028Z,3420
2016-04-07T08:17:06.031Z,3360
2016-04-07T08:18:06.018Z,3356
2016-04-07T08:19:06.036Z,3328
2016-04-07T08:20:06.117Z,3300
2016-04-07T08:21:06.072Z,3320
2016-04-07T08:22:06.028Z,3312
2016-04-07T08:23:06.031Z,3316
2016-04-07T08:24:06.033Z,3448
2016-04-07T08:25:06.021Z,3596
2016-04-07T08:26:06.023Z,3596
2016-04-07T08:27:06.026Z,3548
2016-04-07T08:28:06.029Z,3356
2016-04-07T08:29:06.047Z,3228
2016-04-07T08:30:06.050Z,3224
2016-04-07T08:31:06.069Z,3192
2016-04-07T08:32:06.024Z,3148
2016-04-07T08:33:06.058Z,3104
2016-04-07T08:34:06.029Z,3084
2016-04-07T08:35:06.079Z,3184
2016-04-07T08:36:06.065Z,3340
2016-04-07T08:37:06.022Z,3464
2016-04-07T08:38:06.026Z,3532
2016-04-07T08:39:06.044Z,3904
2016-04-07T08:40:06.063Z,4292
2016-04-07T08:41:06.033Z,4564
2016-04-07T08:42:06.021Z,4768
2016-04-07T08:43:06.023Z,4736
2016-04-07T08:44:06.057Z,4908
2016-04-07T08:45:06.076Z,5232
2016-04-07T08:46:06.063Z,5232
2016-04-07T08:47:06.050Z,4988
2016-04-07T08:48:06.021Z,5020
2016-04-07T08:49:06.040Z,5124
2016-04-07T08:50:06.042Z,5192
2016-04-07T08:51:06.029Z,5460
2016-04-07T08:52:06.031Z,5992
2016-04-07T08:53:06.050Z,6480
2016-04-07T08:54:06.100Z,6504
2016-04-07T08:55:06.056Z,6412
2016-04-07T08:56:06.620Z,6092
2016-04-07T08:57:06.029Z,5592
2016-04-07T08:58:06.017Z,5116
2016-04-07T08:59:06.050Z,4876
2016-04-07T09:00:06.037Z,4916
2016-04-07T09:01:06.040Z,5004
2016-04-07T09:02:06.028Z,5224
2016-04-07T09:03:06.031Z,5492
2016-04-07T09:04:06.080Z,5696
2016-04-07T09:05:06.020Z,5876
2016-04-07T09:06:06.038Z,5844
2016-04-07T09:07:06.041Z,6352
2016-04-07T09:08:18.780Z,7244
2016-04-07T09:09:06.046Z,7512
2016-04-07T09:10:06.205Z,7544
2016-04-07T09:11:06.052Z,7440
2016-04-07T09:12:06.038Z,7400
2016-04-07T09:13:06.042Z,7252
2016-04-07T09:14:06.044Z,7076
2016-04-07T09:15:06.032Z,6900
2016-04-07T09:16:06.049Z,6564
2016-04-07T09:17:06.037Z,6272
2016-04-07T09:18:06.040Z,6160
2016-04-07T09:19:06.057Z,5924
2016-04-07T09:20:06.060Z,5568
2016-04-07T09:21:06.047Z,5216
2016-04-07T09:22:06.051Z,5016
2016-04-07T09:23:06.077Z,5052
2016-04-07T09:24:06.162Z,5152
2016-04-07T09:25:06.217Z,5144
2016-04-07T09:26:06.194Z,5092
2016-04-07T09:27:06.217Z,5148
2016-04-07T09:28:06.241Z,5300
2016-04-07T09:29:06.274Z,5436
2016-04-07T09:30:06.273Z,5664
2016-04-07T09:31:06.289Z,5984
2016-04-07T09:32:06.305Z,6380
2016-04-07T09:33:06.299Z,6580
2016-04-07T09:34:06.306Z,6476
2016-04-07T09:35:06.329Z,6388
2016-04-07T09:36:06.336Z,6232
2016-04-07T09:37:06.344Z,5900
2016-04-07T09:38:06.333Z,5676
2016-04-07T09:39:06.338Z,5648
2016-04-07T09:40:06.421Z,5696
2016-04-07T09:41:06.364Z,6140
2016-04-07T09:42:06.337Z,6800
2016-04-07T09:43:06.341Z,7292
2016-04-07T09:44:06.375Z,7364
2016-04-07T09:45:06.379Z,7204
2016-04-07T09:46:06.366Z,6972
2016-04-07T09:47:06.385Z,7052
2016-04-07T09:48:06.357Z,7372
2016-04-07T09:49:06.344Z,8360
2016-04-07T09:50:06.347Z,8956
2016-04-07T09:51:06.381Z,9212
2016-04-07T09:52:06.352Z,9012
2016-04-07T09:53:06.402Z,9092
2016-04-07T09:54:06.357Z,9180
2016-04-07T09:55:06.423Z,8900
2016-04-07T09:56:06.347Z,8612
2016-04-07T09:57:06.225Z,8084
2016-04-07T09:58:06.352Z,8028
2016-04-07T09:59:06.371Z,8408
2016-04-07T10:00:06.421Z,8612
2016-04-07T10:01:06.360Z,8284
2016-04-07T10:02:06.395Z,7636
2016-04-07T10:03:06.381Z,6996
2016-04-07T10:04:06.400Z,6516
2016-04-07T10:05:06.403Z,6220
2016-04-07T10:06:06.374Z,5888
2016-04-07T10:07:06.393Z,5708
2016-04-07T10:08:06.412Z,5748
2016-04-07T10:09:06.413Z,5676
2016-04-07T10:10:06.634Z,5588
2016-04-07T10:11:06.387Z,5308
2016-04-07T10:12:06.406Z,5160
2016-04-07T10:13:06.361Z,5072
2016-04-07T10:14:06.395Z,4916
2016-04-07T10:15:06.398Z,4628
2016-04-07T10:16:06.369Z,4236
2016-04-07T10:17:06.389Z,3956
2016-04-07T10:18:06.406Z,3612
2016-04-07T10:19:06.394Z,3328
2016-04-07T10:20:06.381Z,3256
2016-04-07T10:21:06.414Z,3288
2016-04-07T10:22:06.402Z,3268
2016-04-07T10:23:06.404Z,3188
2016-04-07T10:24:06.408Z,3264
2016-04-07T10:25:06.504Z,3276
2016-04-07T10:26:06.460Z,3208
2016-04-07T10:27:06.400Z,3052
2016-04-07T10:28:06.418Z,3036
2016-04-07T10:29:06.405Z,3064
2016-04-07T10:30:06.407Z,3040
2016-04-07T10:31:06.410Z,3144
2016-04-07T10:32:06.397Z,3072
2016-04-07T10:33:06.415Z,2860
2016-04-07T10:34:06.403Z,2656
2016-04-07T10:35:06.390Z,2512
2016-04-07T10:36:06.455Z,2392
2016-04-07T10:37:06.426Z,2336
2016-04-07T10:38:06.398Z,2284
2016-04-07T10:39:06.400Z,2284
2016-04-07T10:40:06.434Z,2552
2016-04-07T10:41:06.405Z,3132
2016-04-07T10:42:06.424Z,3564
2016-04-07T10:43:06.427Z,3700
2016-04-07T10:44:06.414Z,3904
2016-04-07T10:45:06.417Z,4328
2016-04-07T10:46:06.389Z,4548
2016-04-07T10:47:06.391Z,4536
2016-04-07T10:48:06.394Z,4572
2016-04-07T10:49:06.397Z,4712
2016-04-07T10:50:06.227Z,5004
2016-04-07T10:51:06.417Z,5060
2016-04-07T10:52:06.420Z,4748
2016-04-07T10:53:06.439Z,4472
2016-04-07T10:54:06.425Z,4356
2016-04-07T10:55:06.460Z,4232
2016-04-07T10:56:06.415Z,4176
2016-04-07T10:57:06.402Z,4240
2016-04-07T10:58:06.436Z,4140
2016-04-07T10:59:06.407Z,3768
2016-04-07T11:00:06.394Z,3308
2016-04-07T11:01:06.396Z,3136
2016-04-07T11:02:06.399Z,3324
2016-04-07T11:03:06.402Z,3520
2016-04-07T11:04:06.405Z,3716
2016-04-07T11:05:06.408Z,3964
2016-04-07T11:06:06.379Z,4148
2016-04-07T11:07:06.429Z,4212
2016-04-07T11:08:06.369Z,4164
2016-04-07T11:09:06.372Z,4240
2016-04-07T11:10:06.420Z,4312
2016-04-07T11:11:06.377Z,4236
2016-04-07T11:12:06.380Z,4104
2016-04-07T11:13:06.383Z,4136
2016-04-07T11:14:06.386Z,4408
2016-04-07T11:15:06.389Z,4848
2016-04-07T11:16:06.391Z,5356
2016-04-07T11:17:06.425Z,5656
2016-04-07T11:18:06.380Z,5644
2016-04-07T11:19:06.399Z,5288
2016-04-07T11:20:06.355Z,4816
2016-04-07T11:21:06.358Z,4460
2016-04-07T11:22:06.392Z,4260
2016-04-07T11:23:06.378Z,4084
2016-04-07T11:24:06.366Z,3948
2016-04-07T11:25:06.555Z,3900
2016-04-07T11:26:06.371Z,3924
2016-04-07T11:27:06.373Z,3920
2016-04-07T11:28:06.219Z,3912
2016-04-07T11:29:06.363Z,3880
2016-04-07T11:30:06.366Z,3880
2016-04-07T11:31:06.369Z,4016
2016-04-07T11:32:06.371Z,4088
2016-04-07T11:33:06.343Z,4052
2016-04-07T11:34:06.361Z,4144
2016-04-07T11:35:06.379Z,4448
2016-04-07T11:36:06.366Z,4808
2016-04-07T11:37:06.369Z,5124
2016-04-07T11:38:06.356Z,5488
2016-04-07T11:39:06.359Z,5836
2016-04-07T11:40:06.471Z,5964
2016-04-07T11:41:06.193Z,5968
2016-04-07T11:42:06.367Z,5992
2016-04-07T11:43:06.370Z,5932
2016-04-07T11:44:06.373Z,5796
2016-04-07T11:45:06.375Z,5588
2016-04-07T11:46:06.378Z,5352
2016-04-07T11:47:06.365Z,5172
2016-04-07T11:48:06.352Z,5168
2016-04-07T11:49:06.355Z,5252
2016-04-07T11:50:06.342Z,5384
2016-04-07T11:51:06.375Z,5608
2016-04-07T11:52:06.347Z,5812
2016-04-07T11:53:06.381Z,5944
2016-04-07T11:54:06.383Z,5896
2016-04-07T11:55:06.261Z,5752
2016-04-07T11:56:06.342Z,5440
2016-04-07T11:57:06.345Z,5048
2016-04-07T11:58:06.347Z,4868
2016-04-07T11:59:06.350Z,4984
2016-04-07T12:00:06.353Z,5180
2016-04-07T12:01:06.371Z,5360
2016-04-07T12:02:06.358Z,5564
2016-04-07T12:03:06.361Z,5484
2016-04-07T12:04:06.332Z,5344
2016-04-07T12:05:06.366Z,5424
2016-04-07T12:06:06.354Z,5456
2016-04-07T12:07:06.356Z,5560
2016-04-07T12:08:06.343Z,5844
2016-04-07T12:09:06.362Z,6128
2016-04-07T12:10:06.348Z,6332
2016-04-07T12:11:06.335Z,6516
2016-04-07T12:12:06.337Z,6696
2016-04-07T12:13:06.356Z,6948
2016-04-07T12:14:06.343Z,7192
2016-04-07T12:15:06.346Z,7432
2016-04-07T12:16:06.365Z,7544
2016-04-07T12:17:06.351Z,7720
2016-04-07T12:18:06.354Z,8060
2016-04-07T12:19:06.341Z,8240
2016-04-07T12:20:06.328Z,8524
2016-04-07T12:21:06.331Z,9000
2016-04-07T12:22:06.349Z,9496
2016-04-07T12:23:06.399Z,9684
2016-04-07T12:24:06.338Z,10244
2016-04-07T12:25:06.341Z,11012
2016-04-07T12:26:06.329Z,11232
2016-04-07T12:27:06.347Z,11304
2016-04-07T12:28:06.335Z,11052
2016-04-07T12:29:06.352Z,10368
2016-04-07T12:30:06.355Z,10140
2016-04-07T12:31:06.374Z,10192
2016-04-07T12:32:06.360Z,9732
2016-04-07T12:33:06.348Z,9716
2016-04-07T12:34:06.350Z,10192
2016-04-07T12:35:06.353Z,10144
2016-04-07T12:36:06.324Z,9608
2016-04-07T12:37:06.359Z,10088
2016-04-07T12:38:06.346Z,9824
2016-04-07T12:39:06.364Z,9740
2016-04-07T12:40:06.351Z,10112
2016-04-07T12:41:06.353Z,11068
2016-04-07T12:42:06.387Z,10960
2016-04-07T12:43:06.343Z,9972
2016-04-07T12:44:06.362Z,9960
2016-04-07T12:45:06.365Z,10048
2016-04-07T12:46:06.367Z,9756
2016-04-07T12:47:06.370Z,9776
2016-04-07T12:48:06.403Z,10064
2016-04-07T12:49:06.375Z,10204
2016-04-07T12:50:06.346Z,10156
2016-04-07T12:51:06.364Z,9636
2016-04-07T12:52:06.367Z,9404
2016-04-07T12:53:06.401Z,9644
2016-04-07T12:54:06.373Z,9580
2016-04-07T12:55:06.375Z,9392
2016-04-07T12:56:06.397Z,8680
2016-04-07T12:57:06.369Z,8612
2016-04-07T12:58:06.386Z,8392
2016-04-07T12:59:06.389Z,8300
2016-04-07T13:00:06.407Z,8264
2016-04-07T13:01:06.410Z,8180
2016-04-07T13:02:06.382Z,7984
2016-04-07T13:03:06.385Z,7632
2016-04-07T13:04:06.387Z,7356
2016-04-07T13:05:06.390Z,7412
2016-04-07T13:06:06.393Z,7528
2016-04-07T13:07:06.410Z,7732
2016-04-07T13:08:06.398Z,7852
2016-04-07T13:09:06.416Z,8148
2016-04-07T13:10:06.434Z,8516
2016-04-07T13:11:06.421Z,8616
2016-04-07T13:12:06.440Z,8812
2016-04-07T13:13:06.254Z,8704
2016-04-07T13:14:06.430Z,8660
2016-04-07T13:15:06.432Z,8884
2016-04-07T13:16:06.451Z,8968
2016-04-07T13:17:06.281Z,8592
2016-04-07T13:18:05.675Z,8380
2016-04-07T13:19:06.442Z,8280
2016-04-07T13:20:06.414Z,7572
2016-04-07T13:21:06.433Z,7100
2016-04-07T13:22:06.403Z,6944
2016-04-07T13:23:06.423Z,6904
2016-04-07T13:24:06.425Z,6896
2016-04-07T13:25:06.444Z,7132
2016-04-07T13:26:06.431Z,7416
2016-04-07T13:27:06.449Z,7396
2016-04-07T13:28:06.441Z,7544
2016-04-07T13:29:06.443Z,6904
2016-04-07T13:30:06.462Z,6312
2016-04-07T13:31:06.293Z,5688
2016-04-07T13:32:06.452Z,5152
2016-04-07T13:33:06.439Z,5020
2016-04-07T13:34:06.441Z,5020
2016-04-07T13:35:06.491Z,5116
2016-04-07T13:36:06.446Z,5172
2016-04-07T13:37:06.434Z,4924
2016-04-07T13:38:06.451Z,4592
2016-04-07T13:39:06.454Z,4488
2016-04-07T13:40:06.489Z,4564
2016-04-07T13:41:06.460Z,4612
2016-04-07T13:42:06.448Z,4828
2016-04-07T13:43:06.434Z,5232
2016-04-07T13:44:06.484Z,5256
2016-04-07T13:45:06.471Z,5236
2016-04-07T13:46:06.473Z,5316
2016-04-07T13:47:06.461Z,5744
2016-04-07T13:48:06.494Z,5820
2016-04-07T13:49:06.450Z,5436